createdAt,value
2018-09-08T00:01:44.272Z,2.35
2018-09-08T00:04:12.659Z,2.20
2018-09-08T00:06:41.067Z,2.20
2018-09-08T00:09:09.969Z,2.72
2018-09-08T00:11:38.660Z,2.47
2018-09-08T00:14:07.072Z,2.08
2018-09-08T00:16:40.837Z,2.47
2018-09-08T00:19:14.910Z,2.85
2018-09-08T00:21:49.293Z,2.83
2018-09-08T00:24:22.872Z,2.30
2018-09-08T00:26:50.413Z,2.07
2018-09-08T00:29:22.911Z,2.08
2018-09-08T00:31:51.292Z,2.47
2018-09-08T00:34:19.621Z,2.57
2018-09-08T00:36:47.975Z,1.95
2018-09-08T00:39:16.281Z,2.20
2018-09-08T00:41:44.644Z,1.97
2018-09-08T00:44:12.960Z,2.43
2018-09-08T00:46:41.325Z,1.97
2018-09-08T00:49:09.688Z,2.22
2018-09-08T00:51:37.980Z,1.63
2018-09-08T00:54:06.326Z,2.40
2018-09-08T00:56:35.601Z,2.00
2018-09-08T00:59:04.792Z,2.20
2018-09-08T01:01:34.201Z,2.70
2018-09-08T01:04:03.100Z,2.07
2018-09-08T01:06:31.904Z,2.23
2018-09-08T01:09:00.263Z,2.00
2018-09-08T01:11:28.563Z,2.40
2018-09-08T01:13:56.893Z,2.23
2018-09-08T01:16:25.202Z,1.80
2018-09-08T01:18:53.568Z,2.30
2018-09-08T01:21:21.904Z,1.90
2018-09-08T01:23:50.785Z,2.15
2018-09-08T01:26:19.804Z,1.60
2018-09-08T01:28:48.498Z,2.12
2018-09-08T01:31:16.950Z,2.30
2018-09-08T01:33:46.009Z,2.85
2018-09-08T01:36:14.392Z,1.77
2018-09-08T01:38:42.715Z,1.72
2018-09-08T01:41:11.041Z,2.10
2018-09-08T01:43:39.373Z,1.73
2018-09-08T01:46:07.876Z,2.20
2018-09-08T01:48:36.685Z,2.03
2018-09-08T01:51:05.093Z,2.15
2018-09-08T01:53:33.410Z,1.70
2018-09-08T01:56:01.792Z,1.67
2018-09-08T01:58:30.214Z,2.10
2018-09-08T02:00:58.698Z,2.17
2018-09-08T02:03:27.075Z,2.03
2018-09-08T02:05:55.405Z,2.17
2018-09-08T02:08:23.768Z,1.77
2018-09-08T02:10:52.080Z,1.60
2018-09-08T02:13:20.397Z,1.40
2018-09-08T02:15:48.736Z,1.77
2018-09-08T02:18:17.064Z,1.93
2018-09-08T02:20:45.392Z,1.77
2018-09-08T02:23:13.738Z,1.90
2018-09-08T02:25:42.058Z,1.57
2018-09-08T02:28:10.373Z,2.27
2018-09-08T02:30:38.717Z,1.73
2018-09-08T02:33:07.089Z,2.20
2018-09-08T02:35:35.420Z,2.10
2018-09-08T02:38:03.836Z,1.90
2018-09-08T02:40:32.892Z,2.17
2018-09-08T02:43:01.200Z,1.95
2018-09-08T02:45:29.528Z,1.62
2018-09-08T02:47:57.857Z,2.52
2018-09-08T02:50:29.251Z,2.30
2018-09-08T02:52:56.505Z,1.60
2018-09-08T02:55:23.841Z,2.00
2018-09-08T02:57:51.072Z,2.40
2018-09-08T03:00:18.321Z,1.70
2018-09-08T03:02:45.578Z,1.70
2018-09-08T03:05:12.820Z,2.02
2018-09-08T03:07:40.072Z,2.33
2018-09-08T03:10:07.308Z,1.97
2018-09-08T03:12:34.581Z,2.33
2018-09-08T03:15:01.853Z,2.13
2018-09-08T03:17:29.113Z,2.60
2018-09-08T03:19:56.352Z,1.90
2018-09-08T03:22:23.684Z,2.72
2018-09-08T03:24:51.081Z,1.95
2018-09-08T03:27:18.461Z,1.62
2018-09-08T03:29:45.745Z,2.67
2018-09-08T03:32:13.305Z,1.97
2018-09-08T03:34:40.568Z,2.80
2018-09-08T03:37:07.849Z,1.82
2018-09-08T03:39:35.106Z,2.25
2018-09-08T03:42:02.403Z,1.90
2018-09-08T03:44:29.648Z,2.55
2018-09-08T03:46:56.909Z,2.05
2018-09-08T03:49:24.147Z,2.35
2018-09-08T03:51:51.438Z,2.40
2018-09-08T03:54:18.733Z,2.37
2018-09-08T03:56:45.984Z,2.55
2018-09-08T03:59:13.221Z,2.10
2018-09-08T04:01:40.468Z,2.75
2018-09-08T04:04:08.789Z,2.60
2018-09-08T04:06:37.110Z,2.72
2018-09-08T04:09:08.321Z,2.20
2018-09-08T04:11:36.693Z,2.40
2018-09-08T04:14:05.073Z,2.05
2018-09-08T04:16:33.454Z,2.30
2018-09-08T04:19:02.572Z,2.37
2018-09-08T04:21:31.373Z,3.22
2018-09-08T04:24:00.094Z,3.10
2018-09-08T04:26:28.649Z,3.00
2018-09-08T04:28:56.955Z,3.12
2018-09-08T04:31:25.269Z,2.67
2018-09-08T04:33:53.599Z,3.10
2018-09-08T04:36:21.924Z,3.47
2018-09-08T04:38:50.914Z,2.77
2018-09-08T04:41:19.216Z,2.35
2018-09-08T04:43:47.532Z,2.98
2018-09-08T04:46:15.869Z,3.25
2018-09-08T04:48:45.187Z,3.33
2018-09-08T04:51:13.472Z,2.77
2018-09-08T04:53:41.792Z,2.60
2018-09-08T04:56:10.126Z,3.87
2018-09-08T04:58:38.469Z,4.10
2018-09-08T05:01:06.884Z,2.72
2018-09-08T05:03:35.813Z,2.65
2018-09-08T05:06:04.756Z,3.02
2018-09-08T05:08:33.074Z,2.90
2018-09-08T05:11:01.429Z,3.50
2018-09-08T05:13:30.808Z,2.90
2018-09-08T05:15:59.323Z,2.60
2018-09-08T05:18:27.683Z,3.00
2018-09-08T05:20:56.066Z,4.15
2018-09-08T05:23:24.519Z,2.90
2018-09-08T05:25:52.984Z,2.70
2018-09-08T05:28:21.474Z,3.10
2018-09-08T05:30:49.801Z,2.70
2018-09-08T05:33:18.404Z,3.20
2018-09-08T05:35:46.738Z,3.17
2018-09-08T05:38:15.593Z,3.25
2018-09-08T05:40:43.935Z,2.90
2018-09-08T05:43:12.693Z,3.52
2018-09-08T05:45:41.053Z,2.80
2018-09-08T05:48:09.370Z,2.47
2018-09-08T05:50:37.787Z,3.27
2018-09-08T05:53:06.905Z,2.67
2018-09-08T05:55:35.223Z,3.17
2018-09-08T05:58:03.576Z,3.17
2018-09-08T06:00:31.948Z,2.53
2018-09-08T06:03:00.272Z,3.33
2018-09-08T06:05:29.052Z,3.30
2018-09-08T06:07:57.420Z,2.90
2018-09-08T06:10:25.808Z,3.20
2018-09-08T06:12:54.082Z,3.37
2018-09-08T06:15:22.430Z,3.13
2018-09-08T06:17:50.757Z,2.83
2018-09-08T06:20:21.419Z,2.67
2018-09-08T06:22:50.441Z,2.80
2018-09-08T06:25:29.439Z,3.00
2018-09-08T06:28:00.492Z,2.67
2018-09-08T06:30:29.094Z,2.67
2018-09-08T06:32:57.409Z,2.60
2018-09-08T06:35:26.390Z,2.57
2018-09-08T06:38:00.228Z,2.97
2018-09-08T06:40:29.573Z,2.30
2018-09-08T06:42:59.898Z,2.40
2018-09-08T06:45:45.982Z,2.57
2018-09-08T06:48:14.504Z,2.77
2018-09-08T06:50:43.758Z,3.47
2018-09-08T06:53:12.212Z,2.57
2018-09-08T06:55:40.724Z,2.17
2018-09-08T06:58:09.029Z,2.83
2018-09-08T07:00:38.349Z,2.50
2018-09-08T07:03:06.905Z,2.77
2018-09-08T07:05:35.549Z,2.50
2018-09-08T07:08:03.869Z,2.67
2018-09-08T07:10:32.669Z,2.83
2018-09-08T07:13:05.137Z,2.27
2018-09-08T07:15:33.493Z,2.40
2018-09-08T07:18:08.193Z,2.37
2018-09-08T07:20:37.016Z,2.10
2018-09-08T07:23:05.748Z,2.67
2018-09-08T07:25:40.987Z,2.10
2018-09-08T07:28:09.342Z,2.23
2018-09-08T07:30:37.644Z,3.83
2018-09-08T07:33:06.188Z,2.10
2018-09-08T07:35:34.513Z,1.90
2018-09-08T07:38:02.875Z,1.50
2018-09-08T07:40:31.194Z,2.10
2018-09-08T07:42:59.542Z,2.00
2018-09-08T07:45:27.828Z,3.37
2018-09-08T07:47:56.153Z,1.97
2018-09-08T07:50:26.514Z,1.90
2018-09-08T07:52:54.904Z,1.83
2018-09-08T07:55:23.208Z,2.50
2018-09-08T07:57:51.529Z,1.60
2018-09-08T08:00:19.842Z,1.70
2018-09-08T08:02:48.352Z,2.30
2018-09-08T08:05:16.787Z,1.60
2018-09-08T08:07:45.110Z,2.53
2018-09-08T08:10:13.527Z,1.70
2018-09-08T08:12:46.608Z,2.00
2018-09-08T08:15:23.549Z,1.70
2018-09-08T08:17:56.737Z,2.00
2018-09-08T08:20:33.111Z,2.20
2018-09-08T08:23:05.994Z,2.60
2018-09-08T08:25:37.903Z,1.60
2018-09-08T08:28:11.279Z,1.87
2018-09-08T08:30:43.026Z,1.50
2018-09-08T08:36:01.598Z,1.80
2018-09-08T08:38:36.159Z,1.70
2018-09-08T08:41:06.055Z,2.80
2018-09-08T08:43:37.487Z,3.47
2018-09-08T08:46:13.215Z,1.67
2018-09-08T08:48:44.380Z,1.93
2018-09-08T08:51:27.186Z,2.07
2018-09-08T08:54:09.372Z,1.70
2018-09-08T08:56:42.911Z,1.40
2018-09-08T08:59:15.899Z,2.00
2018-09-08T09:01:44.272Z,1.40
2018-09-08T09:04:12.790Z,1.57
2018-09-08T09:06:41.096Z,1.30
2018-09-08T09:09:14.780Z,1.70
2018-09-08T09:11:43.696Z,1.90
2018-09-08T09:14:12.501Z,1.90
2018-09-08T09:16:41.269Z,2.10
2018-09-08T09:19:37.555Z,2.53
2018-09-08T09:22:19.428Z,1.47
2018-09-08T09:25:10.437Z,2.00
2018-09-08T09:27:43.423Z,2.13
2018-09-08T09:30:12.913Z,2.13
2018-09-08T09:32:41.265Z,2.07
2018-09-08T09:35:13.247Z,2.13
2018-09-08T09:37:41.874Z,2.07
2018-09-08T09:40:11.184Z,1.57
2018-09-08T09:42:39.583Z,1.90
2018-09-08T09:45:08.623Z,1.80
2018-09-08T09:47:36.969Z,2.30
2018-09-08T09:50:05.960Z,1.93
2018-09-08T09:52:34.419Z,1.80
2018-09-08T09:55:02.829Z,1.80
2018-09-08T09:57:34.749Z,1.77
2018-09-08T10:00:07.742Z,2.23
2018-09-08T10:03:12.699Z,1.73
2018-09-08T10:05:43.998Z,1.80
2018-09-08T10:08:17.786Z,2.57
2018-09-08T10:10:48.456Z,2.27
2018-09-08T10:13:22.334Z,2.20
2018-09-08T10:15:52.314Z,2.50
2018-09-08T10:18:21.158Z,1.83
2018-09-08T10:20:49.833Z,2.10
2018-09-08T10:23:18.389Z,2.20
2018-09-08T10:25:46.940Z,1.90
2018-09-08T10:28:15.510Z,2.37
2018-09-08T10:30:44.200Z,1.47
2018-09-08T10:33:12.772Z,2.07
2018-09-08T10:35:42.976Z,1.50
2018-09-08T10:38:11.469Z,1.43
2018-09-08T10:40:40.088Z,1.77
2018-09-08T10:43:08.528Z,1.53
2018-09-08T10:45:36.997Z,1.83
2018-09-08T10:48:05.545Z,1.60
2018-09-08T10:50:34.068Z,1.90
2018-09-08T10:53:02.568Z,1.60
2018-09-08T10:55:31.319Z,2.00
2018-09-08T10:57:59.792Z,1.90
2018-09-08T11:00:28.444Z,1.40
2018-09-08T11:02:57.019Z,2.17
2018-09-08T11:05:25.412Z,1.50
2018-09-08T11:07:53.904Z,2.30
2018-09-08T11:10:23.506Z,1.30
2018-09-08T11:12:51.814Z,1.43
2018-09-08T11:15:20.133Z,2.10
2018-09-08T11:17:49.010Z,1.83
2018-09-08T11:20:17.325Z,1.90
2018-09-08T11:22:45.724Z,1.97
2018-09-08T11:25:14.084Z,1.87
2018-09-08T11:27:42.424Z,1.80
2018-09-08T11:30:10.762Z,1.63
2018-09-08T11:32:39.079Z,2.00
2018-09-08T11:35:07.530Z,1.60
2018-09-08T11:37:36.718Z,1.53
2018-09-08T11:40:05.152Z,2.07
2018-09-08T11:42:33.454Z,1.60
2018-09-08T11:45:01.774Z,2.30
2018-09-08T11:47:30.081Z,1.83
2018-09-08T11:49:58.388Z,2.43
2018-09-08T11:52:26.680Z,1.47
2018-09-08T11:54:54.993Z,2.03
2018-09-08T11:57:23.301Z,1.40
2018-09-08T11:59:51.657Z,1.67
2018-09-08T12:02:20.669Z,1.13
2018-09-08T12:04:48.997Z,1.10
2018-09-08T12:07:17.299Z,1.73
2018-09-08T12:09:45.619Z,1.37
2018-09-08T12:12:13.933Z,1.43
2018-09-08T12:14:42.341Z,1.50
2018-09-08T12:17:11.356Z,1.23
2018-09-08T12:19:39.660Z,1.63
2018-09-08T12:22:08.030Z,1.10
2018-09-08T12:24:36.284Z,1.17
2018-09-08T12:27:04.676Z,1.17
2018-09-08T12:29:33.004Z,1.10
2018-09-08T12:32:01.377Z,1.37
2018-09-08T12:34:29.721Z,1.63
2018-09-08T12:36:58.061Z,1.77
2018-09-08T12:39:26.370Z,1.23
2018-09-08T12:41:54.716Z,0.90
2018-09-08T12:44:23.016Z,1.47
2018-09-08T12:46:51.332Z,1.53
2018-09-08T12:49:19.657Z,1.53
2018-09-08T12:51:48.026Z,1.60
2018-09-08T12:54:16.311Z,1.50
2018-09-08T12:56:44.619Z,1.50
2018-09-08T12:59:13.009Z,1.37
2018-09-08T13:01:41.289Z,1.53
2018-09-08T13:04:09.637Z,1.60
2018-09-08T13:06:37.932Z,1.60
2018-09-08T13:09:06.797Z,1.10
2018-09-08T13:11:35.097Z,1.50
2018-09-08T13:14:03.442Z,2.53
2018-09-08T13:16:32.180Z,1.23
2018-09-08T13:19:00.509Z,1.83
2018-09-08T13:21:28.880Z,1.20
2018-09-08T13:23:57.237Z,2.83
2018-09-08T13:26:25.498Z,1.63
2018-09-08T13:28:53.825Z,1.80
2018-09-08T13:31:22.206Z,1.30
2018-09-08T13:33:50.613Z,1.53
2018-09-08T13:36:18.901Z,1.50
2018-09-08T13:38:47.249Z,1.90
2018-09-08T13:41:15.562Z,1.50
2018-09-08T13:43:44.020Z,1.30
2018-09-08T13:46:12.332Z,1.70
2018-09-08T13:48:40.645Z,1.50
2018-09-08T13:51:09.042Z,1.30
2018-09-08T13:53:37.337Z,1.43
2018-09-08T13:56:06.645Z,1.40
2018-09-08T13:58:35.057Z,1.80
2018-09-08T14:01:03.371Z,1.40
2018-09-08T14:03:31.684Z,1.47
2018-09-08T14:06:00.363Z,1.30
2018-09-08T14:08:28.673Z,1.67
2018-09-08T14:10:57.005Z,1.37
2018-09-08T14:13:25.331Z,1.60
2018-09-08T14:15:53.810Z,1.90
2018-09-08T14:18:22.120Z,1.40
2018-09-08T14:20:50.469Z,2.07
2018-09-08T14:23:18.878Z,1.37
2018-09-08T14:25:47.200Z,1.50
2018-09-08T14:28:15.529Z,2.13
2018-09-08T14:30:43.862Z,1.90
2018-09-08T14:33:12.216Z,1.63
2018-09-08T14:35:40.561Z,1.83
2018-09-08T14:38:09.047Z,1.20
2018-09-08T14:40:38.648Z,1.67
2018-09-08T14:43:07.248Z,1.67
2018-09-08T14:45:35.824Z,2.00
2018-09-08T14:48:04.341Z,1.43
2018-09-08T14:50:33.237Z,1.93
2018-09-08T14:53:01.832Z,1.30
2018-09-08T14:55:30.709Z,2.00
2018-09-08T14:57:59.910Z,1.50
2018-09-08T15:00:28.534Z,2.00
2018-09-08T15:02:58.029Z,2.17
2018-09-08T15:05:26.733Z,1.23
2018-09-08T15:07:55.354Z,1.67
2018-09-08T15:10:23.868Z,1.30
2018-09-08T15:12:52.340Z,1.40
2018-09-08T15:15:21.190Z,1.67
2018-09-08T15:17:49.627Z,2.07
2018-09-08T15:20:18.089Z,1.47
2018-09-08T15:22:46.592Z,1.63
2018-09-08T15:25:15.270Z,2.10
2018-09-08T15:27:43.802Z,1.80
2018-09-08T15:30:12.258Z,1.50
2018-09-08T15:32:40.846Z,1.47
2018-09-08T15:35:09.330Z,1.70
2018-09-08T15:37:37.821Z,1.60
2018-09-08T15:40:06.475Z,1.20
2018-09-08T15:42:35.233Z,1.80
2018-09-08T15:45:04.857Z,1.10
2018-09-08T15:47:35.659Z,1.37
2018-09-08T15:50:04.459Z,1.40
2018-09-08T15:52:32.877Z,1.03
2018-09-08T15:55:01.284Z,1.30
2018-09-08T15:57:29.802Z,1.50
2018-09-08T15:59:58.331Z,1.60
2018-09-08T16:02:26.771Z,1.30
2018-09-08T16:04:55.255Z,1.37
2018-09-08T16:07:23.626Z,1.37
2018-09-08T16:09:52.631Z,1.43
2018-09-08T16:12:21.142Z,2.20
2018-09-08T16:14:49.572Z,1.20
2018-09-08T16:17:17.985Z,1.40
2018-09-08T16:19:46.523Z,1.47
2018-09-08T16:22:15.210Z,1.60
2018-09-08T16:24:43.717Z,1.40
2018-09-08T16:27:12.280Z,1.83
2018-09-08T16:29:40.822Z,1.67
2018-09-08T16:32:12.223Z,1.37
2018-09-08T16:34:46.422Z,1.80
2018-09-08T16:37:19.310Z,1.70
2018-09-08T16:39:53.009Z,1.80
2018-09-08T16:42:25.623Z,1.67
2018-09-08T16:44:54.504Z,1.57
2018-09-08T16:47:23.909Z,1.57
2018-09-08T16:49:53.056Z,1.67
2018-09-08T16:52:21.631Z,2.90
2018-09-08T16:54:50.018Z,1.67
2018-09-08T16:57:18.512Z,1.73
2018-09-08T16:59:46.959Z,1.67
2018-09-08T17:02:15.402Z,1.20
2018-09-08T17:04:44.034Z,1.33
2018-09-08T17:07:12.770Z,1.20
2018-09-08T17:09:41.321Z,1.40
2018-09-08T17:12:10.123Z,1.23
2018-09-08T17:14:39.326Z,1.53
2018-09-08T17:17:07.738Z,1.70
2018-09-08T17:19:36.255Z,1.83
2018-09-08T17:22:04.706Z,0.93
2018-09-08T17:24:33.350Z,1.60
2018-09-08T17:27:01.876Z,1.70
2018-09-08T17:29:30.442Z,1.50
2018-09-08T17:31:58.962Z,1.17
2018-09-08T17:34:27.393Z,1.57
2018-09-08T17:36:56.204Z,1.40
2018-09-08T17:39:25.705Z,2.03
2018-09-08T17:41:54.477Z,1.80
2018-09-08T17:44:23.002Z,1.90
2018-09-08T17:46:51.489Z,1.40
2018-09-08T17:49:19.950Z,2.80
2018-09-08T17:51:48.503Z,19.00
2018-09-08T17:54:16.913Z,27.87
2018-09-08T17:56:45.401Z,29.60
2018-09-08T17:59:16.044Z,21.37
2018-09-08T18:01:48.297Z,16.43
2018-09-08T18:04:20.071Z,12.33
2018-09-08T18:06:53.578Z,4.90
2018-09-08T18:09:29.083Z,4.50
2018-09-08T18:12:05.721Z,9.60
2018-09-08T18:14:41.221Z,5.63
2018-09-08T18:17:14.341Z,3.90
2018-09-08T18:19:47.387Z,6.20
2018-09-08T18:22:19.350Z,4.73
2018-09-08T18:24:52.619Z,5.23
2018-09-08T18:27:23.305Z,5.10
2018-09-08T18:29:53.987Z,4.30
2018-09-08T18:32:26.362Z,4.73
2018-09-08T18:34:56.238Z,3.80
2018-09-08T18:37:30.799Z,4.97
2018-09-08T18:40:02.992Z,4.27
2018-09-08T18:42:34.230Z,5.33
2018-09-08T18:45:04.541Z,3.87
2018-09-08T18:47:41.230Z,3.37
2018-09-08T18:50:14.491Z,3.17
2018-09-08T18:52:49.939Z,2.83
2018-09-08T18:55:21.709Z,2.90
2018-09-08T18:57:58.995Z,2.83
2018-09-08T19:00:30.545Z,2.20
2018-09-08T19:03:08.152Z,2.47
2018-09-08T19:05:38.909Z,2.10
2018-09-08T19:08:13.809Z,1.70
2018-09-08T19:10:45.703Z,2.43
2018-09-08T19:13:17.073Z,3.20
2018-09-08T19:15:50.867Z,2.47
2018-09-08T19:18:21.635Z,2.10
2018-09-08T19:20:50.017Z,1.83
2018-09-08T19:23:18.384Z,2.00
2018-09-08T19:25:46.749Z,2.10
2018-09-08T19:28:15.025Z,2.13
2018-09-08T19:30:43.369Z,2.33
2018-09-08T19:33:11.686Z,2.63
2018-09-08T19:35:42.285Z,4.23
2018-09-08T19:38:12.251Z,3.63
2018-09-08T19:40:46.502Z,4.27
2018-09-08T19:43:14.899Z,5.83
2018-09-08T19:45:43.237Z,4.33
2018-09-08T19:48:16.837Z,4.60
2018-09-08T19:50:45.201Z,4.60
2018-09-08T19:54:19.944Z,3.73
2018-09-08T19:56:53.624Z,4.30
2018-09-08T19:59:21.929Z,4.67
2018-09-08T20:01:50.297Z,4.20
2018-09-08T20:04:18.634Z,2.90
2018-09-08T20:06:46.928Z,2.77
2018-09-08T20:09:15.366Z,2.80
2018-09-08T20:11:43.661Z,2.73
2018-09-08T20:14:12.004Z,3.80
2018-09-08T20:16:40.346Z,3.13
2018-09-08T20:19:08.653Z,3.23
2018-09-08T20:21:37.058Z,3.50
2018-09-08T20:24:05.428Z,3.20
2018-09-08T20:26:33.847Z,4.10
2018-09-08T20:29:09.292Z,3.60
2018-09-08T20:31:38.935Z,2.83
2018-09-08T20:34:15.849Z,3.13
2018-09-08T20:36:47.538Z,3.10
2018-09-08T20:41:58.857Z,2.83
2018-09-08T20:44:27.654Z,2.87
2018-09-08T20:46:55.993Z,2.33
2018-09-08T20:49:29.456Z,4.23
2018-09-08T20:51:57.833Z,3.50
2018-09-08T20:54:28.428Z,3.83
2018-09-08T20:56:57.013Z,3.40
2018-09-08T20:59:25.331Z,3.47
2018-09-08T21:01:54.022Z,3.93
2018-09-08T21:04:23.289Z,3.37
2018-09-08T21:06:51.588Z,3.30
2018-09-08T21:09:25.004Z,2.80
2018-09-08T21:11:54.199Z,3.67
2018-09-08T21:14:22.957Z,3.67
2018-09-08T21:16:51.627Z,3.20
2018-09-08T21:19:20.225Z,3.43
2018-09-08T21:21:48.564Z,3.30
2018-09-08T21:24:17.080Z,2.90
2018-09-08T21:26:45.454Z,4.20
2018-09-08T21:29:18.039Z,3.90
2018-09-08T21:31:53.561Z,3.60
2018-09-08T21:34:22.187Z,3.03
2018-09-08T21:36:51.722Z,3.50
2018-09-08T21:39:21.169Z,4.10
2018-09-08T21:41:50.461Z,3.70
2018-09-08T21:44:19.419Z,2.93
2018-09-08T21:46:48.003Z,2.10
2018-09-08T21:49:27.176Z,2.57
2018-09-08T21:51:55.524Z,2.90
2018-09-08T21:54:24.049Z,2.40
2018-09-08T21:56:53.507Z,3.43
2018-09-08T21:59:21.854Z,3.67
2018-09-08T22:01:50.643Z,3.50
2018-09-08T22:04:19.162Z,3.13
2018-09-08T22:06:47.879Z,3.80
2018-09-08T22:09:17.193Z,3.67
2018-09-08T22:11:45.804Z,3.30
2018-09-08T22:14:14.141Z,3.43
2018-09-08T22:16:43.459Z,3.80
2018-09-08T22:19:12.146Z,4.10
2018-09-08T22:21:40.651Z,4.37
2018-09-08T22:24:09.128Z,3.93
2018-09-08T22:26:37.609Z,3.10
2018-09-08T22:29:06.035Z,2.97
2018-09-08T22:31:34.474Z,2.90
2018-09-08T22:34:02.928Z,2.97
2018-09-08T22:36:51.550Z,3.00
2018-09-08T22:39:20.032Z,3.13
2018-09-08T22:41:48.459Z,2.90
2018-09-08T22:44:16.828Z,2.63
2018-09-08T22:46:45.349Z,2.93
2018-09-08T22:49:13.748Z,3.10
2018-09-08T22:51:42.125Z,2.57
2018-09-08T22:54:10.877Z,3.60
2018-09-08T22:56:39.453Z,3.50
2018-09-08T22:59:07.832Z,3.27
2018-09-08T23:01:36.188Z,3.33
2018-09-08T23:04:04.669Z,3.37
2018-09-08T23:06:33.222Z,3.50
2018-09-08T23:09:01.604Z,3.30
2018-09-08T23:11:29.941Z,3.63
2018-09-08T23:13:58.498Z,3.13
2018-09-08T23:16:27.104Z,2.80
2018-09-08T23:18:55.904Z,3.23
2018-09-08T23:21:24.235Z,2.70
2018-09-08T23:23:53.565Z,3.60
2018-09-08T23:26:21.979Z,2.33
2018-09-08T23:28:50.320Z,3.00
2018-09-08T23:31:18.820Z,2.77
2018-09-08T23:33:47.333Z,3.17
2018-09-08T23:36:15.672Z,2.47
2018-09-08T23:38:44.038Z,2.90
2018-09-08T23:41:12.610Z,3.33
2018-09-08T23:43:41.024Z,3.67
2018-09-08T23:46:09.733Z,3.20
2018-09-08T23:48:38.397Z,2.90
2018-09-08T23:51:09.328Z,2.50
2018-09-08T23:53:59.653Z,3.20
2018-09-08T23:56:28.080Z,3.17
2018-09-08T23:58:56.396Z,3.27
